sensor_id;sensor_type;location;lat;lon;timestamp;pressure;altitude;pressure_sealevel;temperature;humidity
59831;BME280;45711;50.108;13.712;2023-02-18T00:02:02;98107.34;;;7.52;98.81
59831;BME280;45711;50.108;13.712;2023-02-18T00:04:31;98105.78;;;7.56;97.79
59831;BME280;45711;50.108;13.712;2023-02-18T00:10:39;98115.94;;;7.59;98.80
59831;BME280;45711;50.108;13.712;2023-02-18T00:13:26;98117.25;;;7.56;98.02
59831;BME280;45711;50.108;13.712;2023-02-18T00:16:33;98121.28;;;7.59;98.65
59831;BME280;45711;50.108;13.712;2023-02-18T00:19:23;98133.53;;;7.60;97.98
59831;BME280;45711;50.108;13.712;2023-02-18T00:21:55;98139.06;;;7.53;98.07
59831;BME280;45711;50.108;13.712;2023-02-18T00:24:29;98130.31;;;7.58;97.72
59831;BME280;45711;50.108;13.712;2023-02-18T00:27:23;98140.06;;;7.47;98.55
59831;BME280;45711;50.108;13.712;2023-02-18T00:30:42;98142.53;;;7.54;97.92
59831;BME280;45711;50.108;13.712;2023-02-18T00:33:28;98143.34;;;7.54;96.93
59831;BME280;45711;50.108;13.712;2023-02-18T00:36:04;98155.59;;;7.55;97.23
59831;BME280;45711;50.108;13.712;2023-02-18T00:38:53;98143.56;;;7.53;96.84
59831;BME280;45711;50.108;13.712;2023-02-18T00:41:31;98139.84;;;7.49;98.26
59831;BME280;45711;50.108;13.712;2023-02-18T00:44:01;98127.06;;;7.51;97.76
59831;BME280;45711;50.108;13.712;2023-02-18T00:46:37;98126.56;;;7.54;96.95
59831;BME280;45711;50.108;13.712;2023-02-18T00:49:14;98138.47;;;7.46;96.81
59831;BME280;45711;50.108;13.712;2023-02-18T00:51:50;98147.34;;;7.57;96.66
59831;BME280;45711;50.108;13.712;2023-02-18T00:54:25;98137.25;;;7.59;96.27
59831;BME280;45711;50.108;13.712;2023-02-18T01:01:06;98145.50;;;7.58;96.81
59831;BME280;45711;50.108;13.712;2023-02-18T01:04:07;98142.25;;;7.50;97.45
59831;BME280;45711;50.108;13.712;2023-02-18T01:13:34;98153.66;;;7.46;96.76
59831;BME280;45711;50.108;13.712;2023-02-18T01:16:16;98147.81;;;7.49;96.30
59831;BME280;45711;50.108;13.712;2023-02-18T01:18:53;98148.31;;;7.46;96.35
59831;BME280;45711;50.108;13.712;2023-02-18T01:21:21;98164.94;;;7.58;95.35
59831;BME280;45711;50.108;13.712;2023-02-18T01:24:36;98148.28;;;7.41;96.49
59831;BME280;45711;50.108;13.712;2023-02-18T01:27:37;98153.66;;;7.46;96.66
59831;BME280;45711;50.108;13.712;2023-02-18T01:30:34;98152.53;;;7.42;96.82
59831;BME280;45711;50.108;13.712;2023-02-18T01:33:46;98162.09;;;7.38;96.89
59831;BME280;45711;50.108;13.712;2023-02-18T01:36:04;98160.47;;;7.37;96.32
59831;BME280;45711;50.108;13.712;2023-02-18T01:38:35;98150.13;;;7.40;96.81
59831;BME280;45711;50.108;13.712;2023-02-18T01:41:07;98150.31;;;7.34;96.29
59831;BME280;45711;50.108;13.712;2023-02-18T01:43:46;98152.31;;;7.48;96.69
59831;BME280;45711;50.108;13.712;2023-02-18T01:46:24;98147.97;;;7.37;96.44
59831;BME280;45711;50.108;13.712;2023-02-18T01:49:10;98142.16;;;7.40;97.02
59831;BME280;45711;50.108;13.712;2023-02-18T01:52:05;98147.47;;;7.40;96.39
59831;BME280;45711;50.108;13.712;2023-02-18T01:58:16;98149.91;;;7.47;96.10
59831;BME280;45711;50.108;13.712;2023-02-18T02:00:45;98144.06;;;7.45;96.54
59831;BME280;45711;50.108;13.712;2023-02-18T02:03:18;98147.81;;;7.49;95.39
59831;BME280;45711;50.108;13.712;2023-02-18T02:05:44;98149.16;;;7.51;96.02
59831;BME280;45711;50.108;13.712;2023-02-18T02:08:12;98139.75;;;7.44;95.43
59831;BME280;45711;50.108;13.712;2023-02-18T02:10:49;98139.00;;;7.48;95.50
59831;BME280;45711;50.108;13.712;2023-02-18T02:13:27;98133.34;;;7.40;96.15
59831;BME280;45711;50.108;13.712;2023-02-18T02:19:39;98132.03;;;7.42;96.31
59831;BME280;45711;50.108;13.712;2023-02-18T02:22:45;98131.28;;;7.47;96.26
59831;BME280;45711;50.108;13.712;2023-02-18T02:25:27;98131.25;;;7.42;96.51
59831;BME280;45711;50.108;13.712;2023-02-18T02:28:26;98129.34;;;7.37;96.42
59831;BME280;45711;50.108;13.712;2023-02-18T02:34:35;98119.25;;;7.44;95.47
59831;BME280;45711;50.108;13.712;2023-02-18T02:37:12;98118.47;;;7.44;96.10
59831;BME280;45711;50.108;13.712;2023-02-18T02:43:07;98125.63;;;7.38;95.71
59831;BME280;45711;50.108;13.712;2023-02-18T02:45:50;98132.75;;;7.33;96.82
59831;BME280;45711;50.108;13.712;2023-02-18T02:48:31;98121.88;;;7.39;96.28
59831;BME280;45711;50.108;13.712;2023-02-18T02:51:13;98114.91;;;7.33;96.80
59831;BME280;45711;50.108;13.712;2023-02-18T02:57:46;98115.22;;;7.37;96.29
59831;BME280;45711;50.108;13.712;2023-02-18T03:00:20;98130.09;;;7.33;96.31
59831;BME280;45711;50.108;13.712;2023-02-18T03:06:05;98119.50;;;7.38;96.29
59831;BME280;45711;50.108;13.712;2023-02-18T03:08:51;98123.72;;;7.34;96.40
59831;BME280;45711;50.108;13.712;2023-02-18T03:11:23;98138.09;;;7.33;96.66
59831;BME280;45711;50.108;13.712;2023-02-18T03:14:09;98121.59;;;7.36;96.18
59831;BME280;45711;50.108;13.712;2023-02-18T03:16:58;98133.34;;;7.40;96.37
59831;BME280;45711;50.108;13.712;2023-02-18T03:19:53;98132.22;;;7.36;95.59
59831;BME280;45711;50.108;13.712;2023-02-18T03:22:35;98123.41;;;7.30;96.63
59831;BME280;45711;50.108;13.712;2023-02-18T03:25:22;98117.78;;;7.26;96.70
59831;BME280;45711;50.108;13.712;2023-02-18T03:28:14;98118.06;;;7.30;96.86
59831;BME280;45711;50.108;13.712;2023-02-18T03:30:49;98119.97;;;7.35;96.20
59831;BME280;45711;50.108;13.712;2023-02-18T03:33:27;98121.09;;;7.39;96.12
59831;BME280;45711;50.108;13.712;2023-02-18T03:39:41;98117.84;;;7.32;95.04
59831;BME280;45711;50.108;13.712;2023-02-18T03:42:12;98122.09;;;7.33;95.88
59831;BME280;45711;50.108;13.712;2023-02-18T03:44:50;98114.91;;;7.33;96.36
59831;BME280;45711;50.108;13.712;2023-02-18T03:47:16;98116.25;;;7.36;95.38
59831;BME280;45711;50.108;13.712;2023-02-18T03:49:53;98115.19;;;7.32;95.62
59831;BME280;45711;50.108;13.712;2023-02-18T03:52:31;98114.34;;;7.31;96.05
59831;BME280;45711;50.108;13.712;2023-02-18T03:55:09;98118.34;;;7.28;96.12
59831;BME280;45711;50.108;13.712;2023-02-18T03:57:38;98120.50;;;7.32;95.24
59831;BME280;45711;50.108;13.712;2023-02-18T04:00:08;98121.53;;;7.30;95.63
59831;BME280;45711;50.108;13.712;2023-02-18T04:02:50;98125.00;;;7.31;95.77
59831;BME280;45711;50.108;13.712;2023-02-18T04:05:19;98117.09;;;7.36;95.41
59831;BME280;45711;50.108;13.712;2023-02-18T04:08:31;98116.22;;;7.30;95.46
59831;BME280;45711;50.108;13.712;2023-02-18T04:11:01;98118.41;;;7.39;95.68
59831;BME280;45711;50.108;13.712;2023-02-18T04:13:45;98123.75;;;7.39;94.67
59831;BME280;45711;50.108;13.712;2023-02-18T04:16:13;98127.78;;;7.41;94.69
59831;BME280;45711;50.108;13.712;2023-02-18T04:19:03;98133.28;;;7.35;94.47
59831;BME280;45711;50.108;13.712;2023-02-18T04:21:39;98124.78;;;7.33;94.17
59831;BME280;45711;50.108;13.712;2023-02-18T04:24:11;98129.56;;;7.36;95.12
59831;BME280;45711;50.108;13.712;2023-02-18T04:26:44;98134.66;;;7.37;95.12
59831;BME280;45711;50.108;13.712;2023-02-18T04:35:13;98121.31;;;7.32;94.54
59831;BME280;45711;50.108;13.712;2023-02-18T04:37:44;98122.94;;;7.38;94.90
59831;BME280;45711;50.108;13.712;2023-02-18T04:40:19;98120.50;;;7.32;95.96
59831;BME280;45711;50.108;13.712;2023-02-18T04:43:08;98114.63;;;7.29;95.30
59831;BME280;45711;50.108;13.712;2023-02-18T04:45:35;98135.47;;;7.38;95.35
59831;BME280;45711;50.108;13.712;2023-02-18T04:48:14;98125.84;;;7.32;94.94
59831;BME280;45711;50.108;13.712;2023-02-18T04:50:51;98134.88;;;7.36;95.14
59831;BME280;45711;50.108;13.712;2023-02-18T04:53:23;98130.41;;;7.36;94.74
59831;BME280;45711;50.108;13.712;2023-02-18T04:55:56;98128.22;;;7.33;94.49
59831;BME280;45711;50.108;13.712;2023-02-18T04:58:28;98126.69;;;7.37;94.51
59831;BME280;45711;50.108;13.712;2023-02-18T05:01:02;98127.47;;;7.38;93.58
59831;BME280;45711;50.108;13.712;2023-02-18T05:06:33;98126.91;;;7.36;94.53
59831;BME280;45711;50.108;13.712;2023-02-18T05:09:04;98114.44;;;7.36;94.92
59831;BME280;45711;50.108;13.712;2023-02-18T05:12:05;98113.81;;;7.29;93.98
59831;BME280;45711;50.108;13.712;2023-02-18T05:15:14;98114.34;;;7.31;94.67
59831;BME280;45711;50.108;13.712;2023-02-18T05:17:42;98115.72;;;7.34;94.44
59831;BME280;45711;50.108;13.712;2023-02-18T05:20:21;98115.22;;;7.37;94.00
59831;BME280;45711;50.108;13.712;2023-02-18T05:26:15;98114.66;;;7.35;94.85
59831;BME280;45711;50.108;13.712;2023-02-18T05:29:22;98104.00;;;7.35;93.88
59831;BME280;45711;50.108;13.712;2023-02-18T05:32:13;98117.28;;;7.29;93.82
59831;BME280;45711;50.108;13.712;2023-02-18T05:34:47;98115.72;;;7.34;94.37
59831;BME280;45711;50.108;13.712;2023-02-18T05:37:16;98108.50;;;7.29;94.52
59831;BME280;45711;50.108;13.712;2023-02-18T05:46:00;98112.56;;;7.37;93.84
59831;BME280;45711;50.108;13.712;2023-02-18T05:48:44;98110.69;;;7.37;93.65
59831;BME280;45711;50.108;13.712;2023-02-18T05:51:27;98111.75;;;7.36;93.18
59831;BME280;45711;50.108;13.712;2023-02-18T05:54:15;98100.59;;;7.39;93.74
59831;BME280;45711;50.108;13.712;2023-02-18T06:00:23;98096.53;;;7.32;93.40
59831;BME280;45711;50.108;13.712;2023-02-18T06:02:54;98095.78;;;7.36;93.58
59831;BME280;45711;50.108;13.712;2023-02-18T06:05:23;98101.91;;;7.37;93.62
59831;BME280;45711;50.108;13.712;2023-02-18T06:07:56;98101.38;;;7.40;94.37
59831;BME280;45711;50.108;13.712;2023-02-18T06:10:23;98101.91;;;7.37;94.11
59831;BME280;45711;50.108;13.712;2023-02-18T06:12:56;98086.75;;;7.37;94.35
59831;BME280;45711;50.108;13.712;2023-02-18T06:15:55;98083.78;;;7.34;93.00
59831;BME280;45711;50.108;13.712;2023-02-18T06:18:29;98091.00;;;7.38;94.03
59831;BME280;45711;50.108;13.712;2023-02-18T06:21:46;98089.41;;;7.37;93.92
59831;BME280;45711;50.108;13.712;2023-02-18T06:24:17;98090.72;;;7.40;94.41
59831;BME280;45711;50.108;13.712;2023-02-18T06:26:46;98095.78;;;7.36;93.71
59831;BME280;45711;50.108;13.712;2023-02-18T06:29:25;98090.16;;;7.33;93.96
59831;BME280;45711;50.108;13.712;2023-02-18T06:34:56;98094.97;;;7.36;93.55
59831;BME280;45711;50.108;13.712;2023-02-18T06:37:27;98092.28;;;7.36;93.82
59831;BME280;45711;50.108;13.712;2023-02-18T06:40:20;98091.00;;;7.38;93.74
59831;BME280;45711;50.108;13.712;2023-02-18T06:43:06;98088.34;;;7.38;94.65
59831;BME280;45711;50.108;13.712;2023-02-18T06:51:05;98072.66;;;7.42;93.68
59831;BME280;45711;50.108;13.712;2023-02-18T06:54:58;98073.13;;;7.34;93.59
59831;BME280;45711;50.108;13.712;2023-02-18T06:57:53;98054.97;;;7.30;93.75
59831;BME280;45711;50.108;13.712;2023-02-18T07:00:48;98039.25;;;7.24;94.03
59831;BME280;45711;50.108;13.712;2023-02-18T07:03:17;98044.75;;;7.17;94.82
59831;BME280;45711;50.108;13.712;2023-02-18T07:05:43;98035.81;;;7.28;93.89
59831;BME280;45711;50.108;13.712;2023-02-18T07:08:23;98047.47;;;7.22;94.02
59831;BME280;45711;50.108;13.712;2023-02-18T07:10:52;98035.50;;;7.25;94.66
59831;BME280;45711;50.108;13.712;2023-02-18T07:13:20;98053.31;;;7.19;94.96
59831;BME280;45711;50.108;13.712;2023-02-18T07:16:05;98046.44;;;7.23;94.96
59831;BME280;45711;50.108;13.712;2023-02-18T07:18:39;98048.53;;;7.21;94.28
59831;BME280;45711;50.108;13.712;2023-02-18T07:21:05;98043.25;;;7.26;94.74
59831;BME280;45711;50.108;13.712;2023-02-18T07:23:31;98037.13;;;7.26;94.54
59831;BME280;45711;50.108;13.712;2023-02-18T07:26:09;98034.78;;;7.35;94.19
59831;BME280;45711;50.108;13.712;2023-02-18T07:28:36;98044.91;;;7.33;94.78
59831;BME280;45711;50.108;13.712;2023-02-18T07:31:04;98041.19;;;7.34;94.57
59831;BME280;45711;50.108;13.712;2023-02-18T07:33:36;98032.34;;;7.28;95.25
59831;BME280;45711;50.108;13.712;2023-02-18T07:36:05;98043.81;;;7.28;95.28
59831;BME280;45711;50.108;13.712;2023-02-18T07:38:35;98051.00;;;7.28;94.44
59831;BME280;45711;50.108;13.712;2023-02-18T07:41:23;98042.75;;;7.29;94.42
59831;BME280;45711;50.108;13.712;2023-02-18T07:43:54;98038.19;;;7.25;95.49
59831;BME280;45711;50.108;13.712;2023-02-18T07:46:47;98053.13;;;7.31;94.48
59831;BME280;45711;50.108;13.712;2023-02-18T07:52:40;98047.56;;;7.33;94.32
59831;BME280;45711;50.108;13.712;2023-02-18T07:55:09;98048.66;;;7.37;94.73
59831;BME280;45711;50.108;13.712;2023-02-18T08:25:00;98014.63;;;7.44;94.44
59831;BME280;45711;50.108;13.712;2023-02-18T08:27:35;98015.47;;;7.49;94.68
59831;BME280;45711;50.108;13.712;2023-02-18T08:30:21;98003.78;;;7.50;93.68
59831;BME280;45711;50.108;13.712;2023-02-18T08:32:50;98006.88;;;7.37;93.55
59831;BME280;45711;50.108;13.712;2023-02-18T08:35:19;98009.81;;;7.41;94.24
59831;BME280;45711;50.108;13.712;2023-02-18T08:37:48;98007.38;;;7.34;94.14
59831;BME280;45711;50.108;13.712;2023-02-18T08:40:29;98012.25;;;7.47;94.33
59831;BME280;45711;50.108;13.712;2023-02-18T08:43:01;98003.44;;;7.42;95.01
59831;BME280;45711;50.108;13.712;2023-02-18T08:45:29;97999.19;;;7.41;94.91
59831;BME280;45711;50.108;13.712;2023-02-18T08:48:12;98004.75;;;7.39;93.27
59831;BME280;45711;50.108;13.712;2023-02-18T08:54:25;97993.91;;;7.51;94.26
59831;BME280;45711;50.108;13.712;2023-02-18T08:56:57;97984.84;;;7.52;93.69
59831;BME280;45711;50.108;13.712;2023-02-18T08:59:49;97980.09;;;7.54;93.65
59831;BME280;45711;50.108;13.712;2023-02-18T09:02:21;97980.56;;;7.46;93.22
59831;BME280;45711;50.108;13.712;2023-02-18T09:05:01;97977.13;;;7.50;93.31
59831;BME280;45711;50.108;13.712;2023-02-18T09:08:08;97973.03;;;7.33;94.89
59831;BME280;45711;50.108;13.712;2023-02-18T09:11:01;97964.31;;;7.47;94.47
59831;BME280;45711;50.108;13.712;2023-02-18T09:16:24;97959.28;;;7.46;93.61
59831;BME280;45711;50.108;13.712;2023-02-18T09:19:28;97962.06;;;7.66;93.76
59831;BME280;45711;50.108;13.712;2023-02-18T09:21:56;97956.59;;;7.93;93.63
59831;BME280;45711;50.108;13.712;2023-02-18T09:24:24;97955.81;;;7.98;93.07
59831;BME280;45711;50.108;13.712;2023-02-18T09:26:55;97960.03;;;7.84;92.67
59831;BME280;45711;50.108;13.712;2023-02-18T09:30:26;97944.78;;;7.79;92.25
59831;BME280;45711;50.108;13.712;2023-02-18T09:33:27;97939.75;;;7.82;93.66
59831;BME280;45711;50.108;13.712;2023-02-18T09:35:58;97943.47;;;7.81;92.80
59831;BME280;45711;50.108;13.712;2023-02-18T09:38:46;97936.84;;;7.89;95.65
59831;BME280;45711;50.108;13.712;2023-02-18T09:41:34;97929.66;;;7.85;94.33
59831;BME280;45711;50.108;13.712;2023-02-18T09:44:05;97929.03;;;7.67;91.86
59831;BME280;45711;50.108;13.712;2023-02-18T09:47:04;97915.72;;;7.67;93.45
59831;BME280;45711;50.108;13.712;2023-02-18T09:49:42;97925.72;;;8.07;94.08
59831;BME280;45711;50.108;13.712;2023-02-18T09:55:28;97906.63;;;7.58;92.94
59831;BME280;45711;50.108;13.712;2023-02-18T09:58:18;97904.78;;;7.69;93.52
59831;BME280;45711;50.108;13.712;2023-02-18T10:00:56;97900.22;;;7.59;93.50
59831;BME280;45711;50.108;13.712;2023-02-18T10:52:15;97842.16;;;7.61;96.44
59831;BME280;45711;50.108;13.712;2023-02-18T10:54:52;97845.69;;;7.77;96.41
59831;BME280;45711;50.108;13.712;2023-02-18T10:57:22;97851.53;;;7.74;95.90
59831;BME280;45711;50.108;13.712;2023-02-18T11:00:05;97861.88;;;7.60;96.62
59831;BME280;45711;50.108;13.712;2023-02-18T11:02:42;97853.47;;;7.84;95.73
59831;BME280;45711;50.108;13.712;2023-02-18T11:08:09;97834.25;;;7.76;93.67
59831;BME280;45711;50.108;13.712;2023-02-18T11:10:41;97837.97;;;7.75;95.69
59831;BME280;45711;50.108;13.712;2023-02-18T11:13:09;97837.94;;;7.70;95.30
59831;BME280;45711;50.108;13.712;2023-02-18T11:15:36;97833.75;;;7.90;93.88
59831;BME280;45711;50.108;13.712;2023-02-18T11:18:12;97837.69;;;7.77;94.17
59831;BME280;45711;50.108;13.712;2023-02-18T11:20:39;97817.97;;;7.73;95.40
59831;BME280;45711;50.108;13.712;2023-02-18T11:23:18;97812.72;;;8.03;93.85
59831;BME280;45711;50.108;13.712;2023-02-18T11:25:59;97808.69;;;7.86;94.89
59831;BME280;45711;50.108;13.712;2023-02-18T11:28:30;97817.38;;;7.50;96.93
59831;BME280;45711;50.108;13.712;2023-02-18T11:30:59;97807.03;;;7.69;95.39
59831;BME280;45711;50.108;13.712;2023-02-18T11:33:31;97808.38;;;7.72;95.54
59831;BME280;45711;50.108;13.712;2023-02-18T11:36:02;97807.59;;;7.71;95.15
59831;BME280;45711;50.108;13.712;2023-02-18T23:25:59;97958.63;;;7.71;99.94
59831;BME280;45711;50.108;13.712;2023-02-18T23:28:54;97958.69;;;7.86;97.50
59831;BME280;45711;50.108;13.712;2023-02-18T23:31:49;97951.50;;;7.87;96.89
